Time;durP1;ratioP1;P1;durP2;ratioP2;P2;SDS_P1;SDS_P2;PMS_P1;PMS_P2;Temp;Humidity;BMP_temperature;BMP_pressure;BME280_temperature;BME280_humidity;BME280_pressure;Samples;Min_cycle;Max_cycle;Signal;HPM_P1;HPM_P2
2021/11/30 00:00:16;;;;;;;13.30;8.40;;;;;;;1.60;73.60;95992.74;108063;1273;59709;-68
2021/11/30 00:03:05;;;;;;;13.40;8.40;;;;;;;1.58;73.81;95997.33;108130;1273;70774;-68
2021/11/30 00:05:34;;;;;;;13.50;9.00;;;;;;;1.58;73.80;95998.18;108043;1275;67766;-68
2021/11/30 00:08:04;;;;;;;14.00;9.00;;;;;;;1.58;74.04;96005.05;107960;1275;68644;-68
2021/11/30 00:10:49;;;;;;;17.40;10.80;;;;;;;1.59;74.66;96002.55;108038;1272;59722;-69
2021/11/30 00:13:21;;;;;;;14.60;9.00;;;;;;;1.61;74.46;95990.73;108162;1272;59719;-68
2021/11/30 00:15:52;;;;;;;14.20;9.30;;;;;;;1.63;74.03;95977.79;108029;1275;70634;-68
2021/11/30 00:18:26;;;;;;;13.00;10.00;;;;;;;1.62;73.80;95974.73;108127;1275;68623;-69
2021/11/30 00:20:55;;;;;;;16.00;11.30;;;;;;;1.62;73.72;95986.94;108132;1272;68672;-69
2021/11/30 00:23:25;;;;;;;16.30;11.50;;;;;;;1.60;73.72;95997.16;107945;1275;59763;-68
2021/11/30 00:25:54;;;;;;;13.80;10.20;;;;;;;1.59;73.81;96003.55;108013;1275;59774;-69
2021/11/30 00:28:23;;;;;;;16.80;10.40;;;;;;;1.58;73.76;96011.38;108006;1275;71447;-68
2021/11/30 00:30:52;;;;;;;9.30;6.30;;;;;;;1.56;73.90;96028.64;107981;1276;67932;-68
2021/11/30 00:33:22;;;;;;;13.80;8.50;;;;;;;1.57;73.80;96027.24;107960;1275;68675;-69
2021/11/30 00:35:51;;;;;;;11.60;7.80;;;;;;;1.57;73.72;96025.68;107921;1272;59698;-69
2021/11/30 00:38:21;;;;;;;16.50;11.70;;;;;;;1.57;73.78;96025.88;108026;1275;59666;-69
2021/11/30 00:40:50;;;;;;;14.80;9.70;;;;;;;1.57;73.82;96017.98;108093;1275;71495;-68
2021/11/30 00:43:26;;;;;;;13.60;9.20;;;;;;;1.56;73.84;96012.88;108088;1273;67857;-69
2021/11/30 00:45:58;;;;;;;15.30;10.40;;;;;;;1.56;73.72;96009.58;108088;1275;68877;-68
2021/11/30 00:48:31;;;;;;;22.40;13.40;;;;;;;1.55;73.75;96014.11;108087;1272;59700;-69
2021/11/30 00:51:08;;;;;;;13.10;8.60;;;;;;;1.53;73.94;96020.75;108093;1275;59959;-69
2021/11/30 00:53:39;;;;;;;16.20;11.40;;;;;;;1.53;74.18;96020.23;108078;1275;71606;-68
2021/11/30 00:56:10;;;;;;;17.10;11.50;;;;;;;1.52;74.47;96019.78;108084;1275;67891;-69
2021/11/30 00:58:40;;;;;;;21.00;12.50;;;;;;;1.50;74.40;96014.39;108064;1272;68456;-69
2021/11/30 01:01:10;;;;;;;17.40;11.00;;;;;;;1.47;74.49;96013.57;108033;1274;59782;-69
2021/11/30 01:03:40;;;;;;;15.80;10.20;;;;;;;1.44;74.67;96022.13;108030;1276;59676;-68
2021/11/30 01:06:09;;;;;;;13.50;10.10;;;;;;;1.43;74.77;96025.98;108038;1275;71532;-68
2021/11/30 01:08:39;;;;;;;8.30;5.50;;;;;;;1.42;74.66;96024.14;108104;1275;68640;-68
2021/11/30 01:11:09;;;;;;;14.30;9.80;;;;;;;1.42;74.68;96020.22;108160;1275;68602;-69
2021/11/30 01:13:39;;;;;;;12.50;10.20;;;;;;;1.41;74.80;96020.46;108077;1272;59761;-69
2021/11/30 01:16:08;;;;;;;15.10;10.60;;;;;;;1.40;74.65;96018.63;107979;1276;59781;-68
2021/11/30 01:18:37;;;;;;;9.70;6.60;;;;;;;1.39;74.79;96021.44;108117;1273;69910;-69
2021/11/30 01:21:15;;;;;;;16.00;11.20;;;;;;;1.40;74.65;96022.25;108105;1275;67676;-69
2021/11/30 01:23:44;;;;;;;11.60;8.70;;;;;;;1.39;74.27;96027.27;108099;1274;68593;-69
2021/11/30 01:26:14;;;;;;;19.20;12.40;;;;;;;1.40;74.17;96038.38;108101;1275;59713;-69
2021/11/30 01:28:43;;;;;;;19.50;11.70;;;;;;;1.40;74.13;96048.67;107959;1274;59738;-69
2021/11/30 01:31:13;;;;;;;12.90;8.20;;;;;;;1.33;74.43;96045.77;107926;1276;71565;-68
2021/11/30 01:33:42;;;;;;;11.30;7.20;;;;;;;1.32;74.68;96051.34;107926;1275;66834;-69
2021/11/30 01:36:11;;;;;;;13.30;9.20;;;;;;;1.35;75.05;96053.92;108006;1275;68697;-69
2021/11/30 01:38:40;;;;;;;17.10;10.40;;;;;;;1.39;74.85;96061.07;108056;1276;59746;-68
2021/11/30 01:41:12;;;;;;;20.80;13.30;;;;;;;1.43;74.95;96069.05;108036;1273;59767;-69
2021/11/30 01:43:43;;;;;;;15.20;8.70;;;;;;;1.46;74.23;96072.34;108163;1272;71612;-68
2021/11/30 01:46:26;;;;;;;20.40;12.90;;;;;;;1.46;74.02;96079.54;108035;1273;68513;-69
2021/11/30 01:51:41;;;;;;;19.90;11.20;;;;;;;1.45;74.62;96091.11;108092;1275;59699;-68
2021/11/30 01:54:11;;;;;;;17.00;9.70;;;;;;;1.48;74.51;96094.89;108126;1274;59674;-69
2021/11/30 01:56:41;;;;;;;16.40;10.30;;;;;;;1.50;74.44;96095.98;108125;1274;71369;-69
2021/11/30 01:59:10;;;;;;;15.60;10.60;;;;;;;1.52;74.16;96098.25;108002;1275;67704;-69
2021/11/30 02:01:40;;;;;;;15.60;9.80;;;;;;;1.54;74.48;96105.52;108062;1275;69444;-68
2021/11/30 02:04:11;;;;;;;;;;;;;;;1.55;74.60;96108.39;108099;1272;59773;-69
2021/11/30 02:06:41;;;;;;;16.20;10.80;;;;;;;1.57;73.97;96105.20;108054;1272;59779;-68
2021/11/30 02:09:11;;;;;;;15.20;9.50;;;;;;;1.56;74.00;96110.56;108065;1272;69763;-68
2021/11/30 02:11:41;;;;;;;;;;;;;;;1.57;74.01;96110.86;108149;1274;68408;-68
2021/11/30 02:14:13;;;;;;;14.00;8.60;;;;;;;1.57;74.36;96111.88;108039;1272;69393;-69
2021/11/30 02:16:44;;;;;;;13.60;9.30;;;;;;;1.57;74.09;96118.05;108030;1272;59781;-68
2021/11/30 02:19:14;;;;;;;13.80;8.30;;;;;;;1.57;74.04;96120.64;108132;1272;59709;-69
2021/11/30 02:21:44;;;;;;;15.70;9.70;;;;;;;1.57;74.06;96123.23;108108;1272;70560;-68
2021/11/30 02:24:13;;;;;;;14.50;8.70;;;;;;;1.56;73.84;96119.70;108072;1274;68627;-69
2021/11/30 02:26:43;;;;;;;18.10;11.30;;;;;;;1.55;74.04;96125.09;107995;1275;68486;-69
2021/11/30 02:29:13;;;;;;;14.50;9.30;;;;;;;1.52;73.74;96120.04;107861;1275;59764;-69
2021/11/30 02:31:48;;;;;;;13.90;8.50;;;;;;;1.50;73.90;96119.34;108082;1273;59722;-68
2021/11/30 02:34:18;;;;;;;14.80;9.70;;;;;;;1.49;74.00;96119.38;108104;1275;70847;-68
2021/11/30 02:36:52;;;;;;;13.10;7.80;;;;;;;1.47;74.34;96118.44;108148;1272;67723;-68
2021/11/30 02:39:24;;;;;;;11.70;7.60;;;;;;;1.47;74.15;96120.20;108173;1272;69539;-68
2021/11/30 02:41:56;;;;;;;14.20;9.10;;;;;;;1.45;74.21;96122.84;108165;1272;59745;-69
2021/11/30 02:44:26;;;;;;;13.60;9.10;;;;;;;1.45;74.60;96116.18;108109;1272;59767;-68
2021/11/30 02:46:57;;;;;;;;;;;;;;;1.44;74.90;96120.52;108031;1275;71577;-68
2021/11/30 02:49:30;;;;;;;14.10;8.60;;;;;;;1.42;74.91;96128.73;108164;1272;67694;-68
2021/11/30 02:52:06;;;;;;;14.40;9.70;;;;;;;1.40;74.83;96125.61;108144;1272;69257;-68
2021/11/30 02:54:41;;;;;;;15.70;9.00;;;;;;;1.38;74.80;96127.05;108086;1274;59696;-68
2021/11/30 02:57:14;;;;;;;20.80;11.20;;;;;;;1.37;75.38;96124.89;108118;1272;59776;-68
2021/11/30 02:59:47;;;;;;;16.30;10.00;;;;;;;1.37;75.44;96121.79;108123;1272;71356;-68
2021/11/30 03:02:23;;;;;;;13.70;8.90;;;;;;;1.36;75.04;96124.62;108201;1272;67847;-67
2021/11/30 03:04:58;;;;;;;12.10;7.40;;;;;;;1.34;75.07;96116.64;108052;1272;69406;-68
2021/11/30 03:07:36;;;;;;;15.10;9.70;;;;;;;1.32;75.18;96115.87;108077;1272;59779;-68
2021/11/30 03:10:13;;;;;;;15.10;9.40;;;;;;;1.31;75.30;96113.23;108092;1272;59710;-68
2021/11/30 03:12:42;;;;;;;14.60;9.60;;;;;;;1.28;75.34;96111.66;107960;1275;70891;-68
2021/11/30 03:15:15;;;;;;;12.40;7.50;;;;;;;1.26;75.30;96113.64;107978;1273;67776;-68
2021/11/30 03:17:46;;;;;;;14.50;8.50;;;;;;;1.24;75.33;96110.02;108022;1275;69487;-68
2021/11/30 03:20:18;;;;;;;17.10;10.50;;;;;;;1.20;75.61;96107.79;108030;1272;59766;-68
2021/11/30 03:22:48;;;;;;;16.10;9.90;;;;;;;1.20;75.95;96111.95;107973;1272;59726;-68
2021/11/30 03:25:17;;;;;;;13.30;8.60;;;;;;;1.19;75.58;96114.23;107888;1276;71014;-68
2021/11/30 03:27:48;;;;;;;14.20;8.70;;;;;;;1.19;75.64;96112.86;107849;1272;67917;-68
2021/11/30 03:30:22;;;;;;;14.10;8.40;;;;;;;1.18;76.04;96114.26;108045;1272;69322;-68
2021/11/30 03:35:39;;;;;;;13.60;8.20;;;;;;;1.15;76.13;96116.36;108054;1272;59796;-68
2021/11/30 03:38:08;;;;;;;12.70;8.00;;;;;;;1.13;75.90;96121.23;108030;1272;70754;-68
2021/11/30 03:40:39;;;;;;;12.90;9.30;;;;;;;1.11;76.20;96124.11;108126;1272;67801;-68
2021/11/30 03:43:09;;;;;;;16.30;10.30;;;;;;;1.09;76.76;96123.35;108122;1272;69432;-68
2021/11/30 03:45:39;;;;;;;13.70;9.20;;;;;;;1.06;76.39;96123.52;108022;1272;59800;-68
2021/11/30 03:48:08;;;;;;;14.10;8.90;;;;;;;1.04;76.15;96125.70;108117;1272;59687;-69
2021/11/30 03:50:37;;;;;;;16.80;10.00;;;;;;;1.04;76.27;96128.48;108097;1275;71816;-68
2021/11/30 03:53:07;;;;;;;14.10;8.70;;;;;;;1.02;76.29;96127.87;108116;1272;68638;-68
2021/11/30 03:55:36;;;;;;;15.30;9.50;;;;;;;1.01;76.64;96124.80;108024;1272;69586;-68
2021/11/30 03:58:05;;;;;;;16.50;10.30;;;;;;;1.00;76.52;96126.05;107866;1272;59749;-68
2021/11/30 04:00:34;;;;;;;17.70;10.40;;;;;;;1.00;76.41;96126.59;107998;1275;59716;-68
2021/11/30 04:03:05;;;;;;;15.00;8.40;;;;;;;0.98;76.58;96127.73;107961;1276;70581;-68
2021/11/30 04:05:34;;;;;;;15.90;9.20;;;;;;;0.97;76.62;96131.38;108022;1272;68649;-68
2021/11/30 04:08:04;;;;;;;14.70;8.70;;;;;;;0.95;76.64;96125.99;107894;1275;69506;-68
2021/11/30 04:10:33;;;;;;;15.40;10.00;;;;;;;0.94;76.36;96129.81;108154;1273;59697;-68
2021/11/30 04:13:03;;;;;;;13.20;8.30;;;;;;;0.92;76.16;96133.90;107761;1272;59763;-68
2021/11/30 04:15:32;;;;;;;12.50;8.30;;;;;;;0.90;76.35;96139.68;108131;1272;70911;-68
2021/11/30 04:18:02;;;;;;;15.40;9.40;;;;;;;0.88;77.10;96143.55;107948;1275;68127;-68
2021/11/30 04:20:32;;;;;;;15.80;8.80;;;;;;;0.88;76.63;96143.05;108045;1272;69425;-68
2021/11/30 04:23:01;;;;;;;17.90;9.20;;;;;;;0.84;76.68;96144.11;108012;1275;59776;-68
2021/11/30 04:25:31;;;;;;;14.10;9.10;;;;;;;0.82;76.71;96145.79;108047;1272;59711;-67
2021/11/30 04:28:00;;;;;;;16.40;10.00;;;;;;;0.79;77.30;96146.81;107977;1275;70796;-67
2021/11/30 04:30:30;;;;;;;14.60;8.90;;;;;;;0.76;76.97;96148.32;107963;1276;68464;-67
2021/11/30 04:33:00;;;;;;;13.10;7.80;;;;;;;0.72;76.61;96143.73;107957;1274;69634;-67
2021/11/30 04:35:29;;;;;;;13.30;8.40;;;;;;;0.69;76.50;96155.92;107932;1272;59720;-68
2021/11/30 04:37:59;;;;;;;18.10;11.20;;;;;;;0.64;76.77;96159.44;107946;1275;59693;-68
2021/11/30 04:40:28;;;;;;;14.60;8.70;;;;;;;0.60;76.85;96159.30;107964;1275;72246;-67
2021/11/30 04:42:58;;;;;;;9.60;6.10;;;;;;;0.57;76.68;96167.39;107900;1272;68411;-67
2021/11/30 04:45:33;;;;;;;15.50;10.00;;;;;;;0.56;76.71;96171.03;108229;1272;69432;-67
2021/11/30 04:48:03;;;;;;;11.10;6.90;;;;;;;0.54;76.65;96166.30;107968;1275;59700;-68
2021/11/30 04:50:36;;;;;;;13.10;8.80;;;;;;;0.52;76.64;96169.52;107916;1275;59777;-67
2021/11/30 04:53:07;;;;;;;13.30;7.50;;;;;;;0.47;76.59;96168.17;107973;1275;70834;-67
2021/11/30 04:55:36;;;;;;;16.30;10.00;;;;;;;0.42;76.66;96162.31;107988;1272;68595;-67
2021/11/30 04:58:06;;;;;;;12.80;7.30;;;;;;;0.36;76.63;96165.18;108024;1274;69439;-67
2021/11/30 05:00:36;;;;;;;13.40;8.70;;;;;;;0.30;76.91;96169.27;108010;1272;59776;-68
2021/11/30 05:03:06;;;;;;;17.20;10.40;;;;;;;0.26;76.76;96173.60;107922;1275;59789;-68
2021/11/30 05:05:36;;;;;;;10.90;6.60;;;;;;;0.21;76.85;96169.72;107994;1272;71192;-67
2021/11/30 05:08:05;;;;;;;14.70;8.40;;;;;;;0.18;77.04;96173.63;108053;1271;69042;-68
2021/11/30 05:10:34;;;;;;;15.60;9.40;;;;;;;0.18;77.49;96171.59;108014;1272;68672;-67
2021/11/30 05:13:03;;;;;;;13.00;9.30;;;;;;;0.17;77.95;96183.12;107952;1272;59764;-68
2021/11/30 05:15:33;;;;;;;15.40;9.40;;;;;;;0.13;77.70;96186.77;108043;1276;59816;-67
2021/11/30 05:18:04;;;;;;;14.90;8.90;;;;;;;0.09;77.64;96185.27;107878;1272;71428;-68
2021/11/30 05:20:33;;;;;;;14.40;8.50;;;;;;;0.06;78.26;96186.95;108038;1275;67863;-68
2021/11/30 05:23:02;;;;;;;16.30;9.60;;;;;;;0.04;77.98;96186.52;107999;1272;67682;-68
2021/11/30 05:25:35;;;;;;;14.30;8.50;;;;;;;0.01;77.77;96185.52;108020;1271;59783;-68
2021/11/30 05:28:05;;;;;;;12.40;7.20;;;;;;;-0.04;77.66;96181.97;108044;1272;59733;-68
2021/11/30 05:30:38;;;;;;;;;;;;;;;-0.09;78.08;96187.02;108059;1272;71607;-68
2021/11/30 05:33:09;;;;;;;15.60;9.40;;;;;;;-0.13;78.54;96191.52;108070;1272;68614;-68
2021/11/30 05:35:40;;;;;;;13.40;8.10;;;;;;;-0.16;78.06;96197.64;108020;1276;68426;-68
2021/11/30 05:38:09;;;;;;;14.80;8.40;;;;;;;-0.20;78.05;96193.52;107910;1273;59728;-68
2021/11/30 05:40:42;;;;;;;15.80;8.90;;;;;;;-0.23;78.25;96198.48;107990;1275;59707;-68
2021/11/30 05:43:12;;;;;;;12.00;7.90;;;;;;;-0.26;78.50;96202.41;108002;1275;71607;-68
2021/11/30 05:45:42;;;;;;;15.80;9.20;;;;;;;-0.30;78.39;96210.99;108118;1272;68650;-68
2021/11/30 05:48:11;;;;;;;;;;;;;;;-0.35;78.56;96209.85;107973;1275;69229;-68
2021/11/30 05:50:42;;;;;;;12.40;8.00;;;;;;;-0.39;79.05;96206.45;108020;1272;59755;-68
2021/11/30 05:53:11;;;;;;;15.20;9.10;;;;;;;-0.41;79.03;96213.26;107934;1275;59758;-68
2021/11/30 05:55:48;;;;;;;13.20;8.00;;;;;;;-0.45;78.85;96218.73;108025;1273;70050;-67
2021/11/30 05:58:17;;;;;;;15.30;9.70;;;;;;;-0.49;79.11;96219.96;107888;1275;69292;-67
2021/11/30 06:00:48;;;;;;;18.70;9.60;;;;;;;-0.51;79.48;96220.92;108054;1274;68866;-68
2021/11/30 06:03:31;;;;;;;14.10;8.90;;;;;;;-0.54;79.34;96216.39;107979;1275;59706;-67
2021/11/30 06:06:00;;;;;;;18.40;10.00;;;;;;;-0.58;79.31;96218.48;108049;1272;59751;-67
2021/11/30 06:08:29;;;;;;;15.60;9.10;;;;;;;-0.57;79.12;96225.98;107997;1275;70848;-67
2021/11/30 06:10:58;;;;;;;14.40;8.70;;;;;;;-0.59;79.40;96234.95;108051;1273;68021;-67
2021/11/30 06:13:28;;;;;;;17.00;11.10;;;;;;;-0.59;79.39;96236.52;107946;1273;68609;-67
2021/11/30 06:15:57;;;;;;;20.90;13.40;;;;;;;-0.56;78.98;96243.91;107467;1272;531166;-67
2021/11/30 06:18:26;;;;;;;15.50;9.60;;;;;;;-0.54;78.78;96244.33;108064;1272;59712;-68
2021/11/30 06:20:55;;;;;;;19.00;10.20;;;;;;;-0.48;79.16;96252.61;108117;1271;71573;-67
2021/11/30 06:23:26;;;;;;;18.90;11.00;;;;;;;-0.39;78.89;96254.41;108084;1272;68701;-67
2021/11/30 06:25:55;;;;;;;13.20;8.60;;;;;;;-0.31;78.39;96250.05;108023;1271;69432;-68
2021/11/30 06:28:26;;;;;;;18.40;12.70;;;;;;;-0.23;77.71;96256.52;108020;1275;59739;-67
2021/11/30 06:30:55;;;;;;;21.70;13.00;;;;;;;-0.16;77.47;96261.70;107958;1272;59713;-67
2021/11/30 06:33:23;;;;;;;14.60;9.00;;;;;;;-0.08;77.14;96261.96;107848;1275;70816;-67
2021/11/30 06:35:52;;;;;;;18.20;11.40;;;;;;;0.03;76.84;96266.77;108047;1275;68576;-67
2021/11/30 06:38:22;;;;;;;14.50;9.40;;;;;;;0.16;76.45;96265.91;107985;1274;69497;-67
2021/11/30 06:40:51;;;;;;;16.10;10.10;;;;;;;0.27;75.92;96269.15;107877;1275;59790;-67
2021/11/30 06:43:19;;;;;;;14.80;8.00;;;;;;;0.39;75.28;96273.67;108023;1272;59665;-67
2021/11/30 06:45:49;;;;;;;18.90;10.80;;;;;;;0.53;75.46;96271.98;108086;1272;72583;-67
2021/11/30 06:48:20;;;;;;;15.10;10.40;;;;;;;0.65;73.48;96273.92;108110;1272;67898;-67
2021/11/30 06:50:51;;;;;;;16.00;12.80;;;;;;;0.78;73.55;96276.83;107987;1275;69469;-68
2021/11/30 06:53:21;;;;;;;15.80;10.70;;;;;;;0.98;73.78;96282.83;108103;1271;59710;-68
2021/11/30 06:55:51;;;;;;;13.40;8.10;;;;;;;1.16;72.22;96284.11;108184;1272;59722;-68
2021/11/30 06:58:20;;;;;;;15.20;10.00;;;;;;;1.31;71.30;96286.41;108163;1269;71390;-67
2021/11/30 07:00:51;;;;;;;12.70;9.60;;;;;;;1.55;71.69;96286.11;108101;1272;67142;-69
2021/11/30 07:03:22;;;;;;;15.60;10.40;;;;;;;1.98;70.52;96287.84;108078;1274;69423;-68
2021/11/30 07:06:22;;;;;;;11.50;7.80;;;;;;;2.73;69.16;96286.63;107987;1274;59696;-68
2021/11/30 07:08:51;;;;;;;11.40;7.10;;;;;;;3.31;66.53;96288.77;108114;1272;59658;-68
2021/11/30 07:11:34;;;;;;;13.20;9.20;;;;;;;3.80;63.95;96281.72;107941;1272;70820;-68
2021/11/30 07:14:05;;;;;;;15.30;11.10;;;;;;;4.06;63.54;96279.71;108063;1272;67859;-68
2021/11/30 07:16:46;;;;;;;15.50;10.20;;;;;;;4.01;62.02;96283.83;108109;1274;68649;-68
2021/11/30 07:19:28;;;;;;;12.20;8.40;;;;;;;3.86;62.15;96287.55;108031;1276;59712;-68
2021/11/30 07:21:57;;;;;;;14.10;8.90;;;;;;;3.72;62.41;96292.23;108019;1272;59779;-68
2021/11/30 07:24:26;;;;;;;15.20;8.90;;;;;;;3.58;62.36;96289.36;108090;1270;71645;-68
2021/11/30 07:26:56;;;;;;;13.30;7.70;;;;;;;3.43;62.88;96292.50;107888;1272;68574;-68
2021/11/30 07:29:43;;;;;;;14.00;9.80;;;;;;;3.29;63.68;96293.20;108024;1272;69538;-67
2021/11/30 07:32:23;;;;;;;13.20;9.30;;;;;;;3.19;62.90;96296.08;108085;1272;59793;-68
2021/11/30 07:35:06;;;;;;;12.50;8.00;;;;;;;3.07;63.21;96299.38;108051;1275;59712;-67
2021/11/30 07:37:41;;;;;;;13.80;8.40;;;;;;;3.07;64.07;96298.68;108112;1271;72135;-69
2021/11/30 07:40:11;;;;;;;13.70;8.70;;;;;;;3.07;63.49;96299.04;108016;1271;69351;-68
2021/11/30 07:42:42;;;;;;;14.90;8.60;;;;;;;3.10;63.60;96303.36;108073;1272;68694;-67
2021/11/30 07:45:12;;;;;;;11.00;8.60;;;;;;;3.18;63.96;96305.79;108059;1275;59760;-67
2021/11/30 07:47:42;;;;;;;12.60;8.70;;;;;;;3.31;64.33;96302.92;108028;1272;59730;-67
2021/11/30 07:50:11;;;;;;;14.10;9.80;;;;;;;3.38;63.03;96307.62;108143;1272;70724;-67
2021/11/30 07:52:41;;;;;;;13.80;8.80;;;;;;;3.42;63.19;96301.00;108028;1272;67964;-67
2021/11/30 07:55:13;;;;;;;13.60;9.10;;;;;;;3.44;63.43;96305.74;108005;1272;68655;-67
2021/11/30 07:57:42;;;;;;;12.00;7.80;;;;;;;3.48;63.62;96305.83;108005;1276;59801;-67
2021/11/30 08:00:16;;;;;;;15.30;9.90;;;;;;;3.48;63.01;96306.83;107999;1273;59720;-67
2021/11/30 08:02:45;;;;;;;14.30;10.10;;;;;;;3.45;62.28;96306.39;108038;1272;71649;-67
2021/11/30 08:05:15;;;;;;;14.00;8.60;;;;;;;3.38;63.46;96310.75;107998;1275;67660;-69
2021/11/30 08:07:45;;;;;;;12.90;8.60;;;;;;;3.43;62.81;96314.74;107999;1271;68278;-68
2021/11/30 08:10:16;;;;;;;17.40;11.40;;;;;;;3.49;62.33;96312.46;107989;1272;59749;-70
2021/11/30 08:12:46;;;;;;;15.40;10.70;;;;;;;3.57;61.55;96316.80;107984;1274;59681;-68
2021/11/30 08:15:16;;;;;;;13.60;8.90;;;;;;;3.60;61.17;96318.34;108074;1272;70901;-68
2021/11/30 08:18:01;;;;;;;14.60;11.10;;;;;;;3.61;62.01;96320.86;108125;1272;69036;-67
2021/11/30 08:20:31;;;;;;;12.70;8.10;;;;;;;3.70;61.54;96320.81;108154;1271;68501;-68
2021/11/30 08:23:01;;;;;;;17.20;10.50;;;;;;;3.69;61.60;96321.02;107983;1275;59725;-68
2021/11/30 08:25:30;;;;;;;11.30;8.00;;;;;;;3.66;61.82;96324.84;107997;1274;59710;-68
2021/11/30 08:27:59;;;;;;;14.70;9.90;;;;;;;3.68;61.91;96319.26;107954;1272;70899;-68
2021/11/30 08:30:46;;;;;;;17.80;11.40;;;;;;;3.58;61.39;96320.67;108018;1273;67888;-68
2021/11/30 08:33:17;;;;;;;;;;;;;;;3.83;60.88;96325.20;107908;1275;68634;-68
2021/11/30 08:35:47;;;;;;;13.80;8.00;;;;;;;4.02;60.46;96327.89;108074;1272;59757;-68
2021/11/30 08:38:16;;;;;;;14.50;9.50;;;;;;;4.10;59.70;96331.71;108046;1272;59758;-68
2021/11/30 08:40:45;;;;;;;13.80;9.70;;;;;;;4.10;59.28;96332.77;108093;1272;71023;-68
2021/11/30 08:43:14;;;;;;;14.60;10.30;;;;;;;4.03;58.70;96338.70;108112;1272;69281;-68
2021/11/30 08:45:44;;;;;;;12.90;8.90;;;;;;;4.02;59.48;96336.91;107807;1275;67766;-68
2021/11/30 08:48:13;;;;;;;15.50;10.20;;;;;;;3.97;60.33;96338.25;107947;1275;59773;-68
2021/11/30 08:50:41;;;;;;;11.80;8.40;;;;;;;4.01;59.93;96336.45;108083;1272;59771;-68
2021/11/30 08:53:10;;;;;;;18.10;10.90;;;;;;;4.03;60.07;96338.16;108078;1272;70759;-68
2021/11/30 08:55:39;;;;;;;13.60;8.10;;;;;;;4.16;59.36;96344.25;108104;1272;67656;-68
2021/11/30 08:58:08;;;;;;;12.80;8.10;;;;;;;4.62;57.70;96343.87;108165;1272;69928;-69
2021/11/30 09:00:38;;;;;;;16.30;10.50;;;;;;;5.20;56.54;96342.90;108081;1272;59778;-69
2021/11/30 09:03:07;;;;;;;13.60;9.00;;;;;;;5.47;55.20;96337.98;107916;1275;59772;-69
2021/11/30 09:05:36;;;;;;;13.30;8.70;;;;;;;5.43;54.51;96331.16;108135;1272;71766;-68
2021/11/30 09:08:05;;;;;;;15.10;10.60;;;;;;;5.58;54.57;96334.94;107999;1275;67543;-69
2021/11/30 09:10:34;;;;;;;18.50;11.60;;;;;;;7.19;52.66;96336.80;107907;1275;69612;-68
2021/11/30 09:13:03;;;;;;;15.50;10.40;;;;;;;8.87;45.45;96333.73;108008;1272;59774;-69
2021/11/30 09:15:33;;;;;;;15.10;10.70;;;;;;;9.06;46.46;96336.71;108074;1272;59713;-68
2021/11/30 09:18:02;;;;;;;13.40;9.20;;;;;;;8.93;47.31;96339.34;108035;1272;70565;-69
2021/11/30 09:20:32;;;;;;;11.90;7.40;;;;;;;8.16;46.68;96338.83;107924;1273;66799;-69
2021/11/30 09:23:02;;;;;;;11.60;8.00;;;;;;;7.40;47.59;96339.80;107945;1275;68706;-68
2021/11/30 09:25:31;;;;;;;10.50;8.30;;;;;;;7.12;49.10;96346.73;107919;1275;59787;-69
2021/11/30 09:28:02;;;;;;;11.60;8.70;;;;;;;6.74;49.20;96343.72;108084;1272;59732;-69
2021/11/30 09:30:36;;;;;;;11.70;7.70;;;;;;;6.45;50.32;96340.52;108055;1272;70586;-69
2021/11/30 09:33:06;;;;;;;9.50;6.50;;;;;;;6.46;49.46;96342.19;107997;1274;67889;-68
2021/11/30 09:35:35;;;;;;;9.70;7.00;;;;;;;7.08;49.34;96351.70;108053;1273;69474;-68
2021/11/30 09:38:04;;;;;;;10.20;7.30;;;;;;;8.27;46.99;96345.23;107950;1272;59749;-68
2021/11/30 09:40:34;;;;;;;13.20;7.10;;;;;;;8.65;46.08;96346.66;108074;1272;59770;-68
2021/11/30 09:43:25;;;;;;;9.80;6.70;;;;;;;8.72;44.04;96339.02;108005;1271;70786;-68
2021/11/30 09:45:56;;;;;;;11.60;7.40;;;;;;;8.36;44.41;96334.30;107993;1272;67878;-68
2021/11/30 09:48:27;;;;;;;11.20;7.60;;;;;;;7.85;45.35;96335.17;107989;1275;68643;-68
2021/11/30 09:50:58;;;;;;;10.10;7.20;;;;;;;7.16;47.08;96335.70;108139;1272;59696;-68
2021/11/30 09:53:29;;;;;;;11.90;7.40;;;;;;;6.63;48.34;96331.59;107981;1276;59761;-68
2021/11/30 09:55:58;;;;;;;11.70;7.80;;;;;;;6.29;49.05;96328.00;108024;1273;71452;-68
2021/11/30 09:58:27;;;;;;;10.10;7.20;;;;;;;6.18;49.77;96328.60;108090;1272;67849;-68
2021/11/30 10:00:59;;;;;;;9.40;6.30;;;;;;;6.15;49.87;96329.01;107966;1275;69459;-69
2021/11/30 10:03:29;;;;;;;8.90;5.60;;;;;;;6.11;49.19;96324.95;108114;1272;59712;-69
2021/11/30 10:05:58;;;;;;;;;;;;;;;6.06;49.33;96329.65;108111;1276;59716;-70
2021/11/30 10:08:45;;;;;;;8.30;5.50;;;;;;;5.86;49.51;96325.38;108039;1272;71643;-68
2021/11/30 10:11:31;;;;;;;11.30;6.90;;;;;;;5.70;49.52;96328.55;108080;1272;69163;-69
2021/11/30 10:14:24;;;;;;;8.80;6.30;;;;;;;5.57;50.36;96326.34;108051;1272;69484;-69
2021/11/30 10:17:21;;;;;;;9.40;6.60;;;;;;;5.50;50.07;96320.77;107980;1272;59817;-68
2021/11/30 10:19:56;;;;;;;11.10;6.20;;;;;;;5.45;51.00;96321.16;108020;1272;59704;-67
2021/11/30 10:22:46;;;;;;;8.00;6.40;;;;;;;5.36;50.66;96317.09;107934;1275;71954;-69
2021/11/30 10:25:24;;;;;;;10.90;7.20;;;;;;;5.27;50.86;96322.20;108134;1273;67815;-67
2021/11/30 10:27:57;;;;;;;10.00;6.90;;;;;;;5.42;50.95;96323.98;108073;1271;69276;-70
2021/11/30 10:30:30;;;;;;;9.20;6.40;;;;;;;5.45;51.20;96328.96;107992;1272;59784;-68
2021/11/30 10:33:10;;;;;;;20.00;11.90;;;;;;;5.43;51.47;96331.30;108049;1272;59735;-67
2021/11/30 10:35:39;;;;;;;11.80;6.90;;;;;;;5.43;51.32;96335.30;107972;1272;69668;-68
2021/11/30 10:38:08;;;;;;;11.10;6.80;;;;;;;5.43;51.03;96326.64;108039;1271;68589;-69
2021/11/30 10:40:41;;;;;;;17.70;10.20;;;;;;;5.37;51.84;96320.32;107923;1274;68648;-69
2021/11/30 10:43:11;;;;;;;11.70;7.20;;;;;;;5.25;51.93;96320.27;108097;1272;59722;-68
2021/11/30 10:45:46;;;;;;;10.30;7.30;;;;;;;5.16;51.75;96316.96;108047;1272;59742;-68
2021/11/30 10:48:24;;;;;;;11.30;6.50;;;;;;;5.17;51.16;96316.17;107841;1275;71525;-70
2021/11/30 10:50:56;;;;;;;10.30;7.20;;;;;;;5.29;50.84;96313.60;108165;1273;67831;-69
2021/11/30 10:53:32;;;;;;;9.60;6.10;;;;;;;5.80;50.30;96313.88;108046;1272;69273;-70
2021/11/30 10:56:04;;;;;;;18.60;12.10;;;;;;;6.23;49.59;96312.31;108112;1272;59805;-71
2021/11/30 10:58:41;;;;;;;9.20;6.40;;;;;;;6.56;47.02;96309.23;108133;1271;59733;-69
2021/11/30 11:01:19;;;;;;;11.60;7.30;;;;;;;6.63;46.18;96309.39;108112;1272;71372;-70
2021/11/30 11:04:03;;;;;;;17.90;11.20;;;;;;;6.50;45.36;96308.80;107847;1272;68692;-69
2021/11/30 11:06:35;;;;;;;12.00;8.30;;;;;;;6.46;45.33;96308.77;108062;1272;69512;-70
2021/11/30 11:09:07;;;;;;;9.40;7.20;;;;;;;6.82;45.48;96310.79;108124;1272;59811;-70
2021/11/30 11:11:40;;;;;;;9.40;7.00;;;;;;;7.12;45.05;96310.04;107884;1272;59724;-69
2021/11/30 11:14:25;;;;;;;8.00;5.10;;;;;;;7.32;43.80;96308.81;107941;1272;71645;-70
2021/11/30 11:17:02;;;;;;;10.00;8.00;;;;;;;7.07;43.45;96307.78;108026;1272;68660;-69
2021/11/30 11:19:40;;;;;;;10.00;7.40;;;;;;;7.00;44.55;96305.58;108117;1272;69414;-70
2021/11/30 11:22:17;;;;;;;6.80;4.40;;;;;;;6.82;43.81;96299.16;107997;1275;59800;-68
2021/11/30 11:24:53;;;;;;;7.10;5.80;;;;;;;6.67;45.00;96297.66;108092;1272;60042;-69
2021/11/30 11:27:42;;;;;;;7.30;5.50;;;;;;;6.56;45.85;96302.42;107952;1272;70551;-70
2021/11/30 11:30:13;;;;;;;8.50;6.60;;;;;;;6.45;46.54;96299.67;108127;1272;67844;-69
2021/11/30 11:32:43;;;;;;;9.50;6.40;;;;;;;6.18;47.11;96299.69;107955;1272;68706;-69
2021/11/30 11:35:12;;;;;;;7.40;5.30;;;;;;;5.92;45.99;96297.97;107984;1271;59786;-70
2021/11/30 11:37:44;;;;;;;7.20;5.00;;;;;;;5.63;45.87;96301.74;108017;1272;59630;-70
2021/11/30 11:40:14;;;;;;;9.70;5.80;;;;;;;5.34;46.83;96303.56;108000;1275;70822;-69
2021/11/30 11:42:43;;;;;;;6.20;4.70;;;;;;;5.92;45.80;96299.18;107983;1272;68452;-71
2021/11/30 11:45:12;;;;;;;7.10;5.00;;;;;;;7.30;43.82;96303.96;108021;1272;68247;-70
2021/11/30 11:47:41;;;;;;;6.50;4.50;;;;;;;8.48;40.97;96295.48;107927;1272;59802;-69
2021/11/30 11:50:13;;;;;;;6.10;4.30;;;;;;;9.56;39.26;96296.98;107786;1275;59793;-70